createdAt,value
2017-10-15T00:01:11.810Z,14.80
2017-10-15T00:03:40.083Z,14.70
2017-10-15T00:06:08.329Z,14.70
2017-10-15T00:08:36.578Z,14.60
2017-10-15T00:11:05.582Z,14.60
2017-10-15T00:13:33.843Z,14.60
2017-10-15T00:16:02.078Z,14.50
2017-10-15T00:18:30.369Z,14.50
2017-10-15T00:20:58.606Z,14.50
2017-10-15T00:23:26.859Z,14.40
2017-10-15T00:25:55.131Z,14.40
2017-10-15T00:28:23.384Z,14.30
2017-10-15T00:30:51.634Z,14.30
2017-10-15T00:33:20.242Z,14.20
2017-10-15T00:35:48.538Z,14.20
2017-10-15T00:38:16.767Z,14.20
2017-10-15T00:40:45.058Z,14.10
2017-10-15T00:43:13.302Z,14.20
2017-10-15T00:45:42.311Z,14.10
2017-10-15T00:48:10.579Z,14.10
2017-10-15T00:50:39.704Z,14.10
2017-10-15T00:53:08.106Z,14.00
2017-10-15T00:55:36.518Z,14.00
2017-10-15T00:58:05.791Z,14.00
2017-10-15T01:00:34.018Z,13.90
2017-10-15T01:03:02.322Z,13.90
2017-10-15T01:05:30.563Z,13.90
2017-10-15T01:07:59.574Z,13.90
2017-10-15T01:10:27.847Z,13.90
2017-10-15T01:12:56.516Z,13.80
2017-10-15T01:15:24.762Z,13.80
2017-10-15T01:17:53.314Z,13.70
2017-10-15T01:20:21.817Z,13.70
2017-10-15T01:22:50.050Z,13.70
2017-10-15T01:25:18.318Z,13.60
2017-10-15T01:27:46.619Z,13.60
2017-10-15T01:30:14.866Z,13.60
2017-10-15T01:32:43.901Z,13.50
2017-10-15T01:35:12.154Z,13.50
2017-10-15T01:37:40.402Z,13.50
2017-10-15T01:40:09.034Z,13.40
2017-10-15T01:42:37.285Z,13.40
2017-10-15T01:45:05.533Z,13.40
2017-10-15T01:47:36.894Z,13.30
2017-10-15T01:50:05.902Z,13.30
2017-10-15T01:52:34.912Z,13.30
2017-10-15T01:55:03.182Z,13.30
2017-10-15T01:57:31.434Z,13.20
2017-10-15T01:59:59.674Z,13.20
2017-10-15T02:02:28.352Z,13.20
2017-10-15T02:04:56.590Z,13.20
2017-10-15T02:07:24.850Z,13.20
2017-10-15T02:09:54.007Z,13.10
2017-10-15T02:12:22.234Z,13.10
2017-10-15T02:14:50.910Z,13.10
2017-10-15T02:17:19.955Z,13.10
2017-10-15T02:19:48.199Z,13.00
2017-10-15T02:22:16.521Z,13.10
2017-10-15T02:24:45.070Z,13.10
2017-10-15T02:27:13.322Z,13.00
2017-10-15T02:29:41.569Z,13.00
2017-10-15T02:32:09.846Z,13.10
2017-10-15T02:34:38.090Z,13.10
2017-10-15T02:37:06.337Z,13.10
2017-10-15T02:39:34.602Z,13.10
2017-10-15T02:42:03.613Z,12.80
2017-10-15T02:44:31.862Z,12.80
2017-10-15T02:47:00.560Z,12.80
2017-10-15T02:49:28.803Z,12.70
2017-10-15T02:51:57.055Z,12.80
2017-10-15T02:54:25.378Z,12.80
2017-10-15T02:56:53.659Z,12.70
2017-10-15T02:59:22.678Z,12.70
2017-10-15T03:01:50.955Z,12.60
2017-10-15T03:04:19.205Z,12.70
2017-10-15T03:06:47.653Z,12.70
2017-10-15T03:09:16.214Z,12.70
2017-10-15T03:11:44.462Z,12.70
2017-10-15T03:14:12.710Z,12.70
2017-10-15T03:16:41.338Z,12.70
2017-10-15T03:19:09.583Z,12.80
2017-10-15T03:21:37.832Z,12.80
2017-10-15T03:24:06.098Z,12.80
2017-10-15T03:26:34.555Z,12.80
2017-10-15T03:29:02.797Z,12.80
2017-10-15T03:31:31.954Z,12.80
2017-10-15T03:34:00.206Z,12.80
2017-10-15T03:36:28.446Z,12.80
2017-10-15T03:38:56.726Z,12.90
2017-10-15T03:41:25.741Z,12.90
2017-10-15T03:43:53.994Z,12.80
2017-10-15T03:46:23.091Z,12.90
2017-10-15T03:48:52.368Z,12.90
2017-10-15T03:51:20.619Z,12.90
2017-10-15T03:53:49.052Z,12.90
2017-10-15T03:56:18.116Z,12.90
2017-10-15T03:58:46.362Z,12.90
2017-10-15T04:01:14.642Z,12.90
2017-10-15T04:03:42.893Z,12.90
2017-10-15T04:06:11.150Z,12.90
2017-10-15T04:08:40.189Z,13.00
2017-10-15T04:11:08.437Z,12.90
2017-10-15T04:13:36.690Z,13.00
2017-10-15T04:16:05.029Z,13.00
2017-10-15T04:18:33.841Z,13.00
2017-10-15T04:21:02.096Z,13.00
2017-10-15T04:23:30.372Z,12.90
2017-10-15T04:25:58.618Z,12.90
2017-10-15T04:28:26.873Z,12.90
2017-10-15T04:30:56.123Z,13.00
2017-10-15T04:33:24.371Z,13.00
2017-10-15T04:35:52.625Z,13.00
2017-10-15T04:38:21.163Z,12.90
2017-10-15T04:40:49.422Z,12.80
2017-10-15T04:43:17.670Z,12.80
2017-10-15T04:45:46.386Z,12.80
2017-10-15T04:48:14.634Z,12.80
2017-10-15T04:50:42.878Z,12.80
2017-10-15T04:53:11.164Z,12.90
2017-10-15T04:55:41.358Z,12.70
2017-10-15T04:58:09.597Z,12.70
2017-10-15T05:00:38.118Z,12.70
2017-10-15T05:03:06.367Z,12.60
2017-10-15T05:05:34.610Z,12.60
2017-10-15T05:08:03.641Z,12.60
2017-10-15T05:10:31.890Z,12.60
2017-10-15T05:13:00.130Z,12.60
2017-10-15T05:15:28.401Z,12.60
2017-10-15T05:17:56.650Z,12.50
2017-10-15T05:20:25.461Z,12.60
2017-10-15T05:22:53.824Z,12.60
2017-10-15T05:25:22.223Z,12.60
2017-10-15T05:27:50.475Z,12.50
2017-10-15T05:30:18.746Z,12.50
2017-10-15T05:32:46.998Z,12.50
2017-10-15T05:35:15.251Z,12.50
2017-10-15T05:37:43.526Z,12.50
2017-10-15T05:40:12.547Z,12.40
2017-10-15T05:42:40.795Z,12.40
2017-10-15T05:45:09.263Z,12.40
2017-10-15T05:47:37.506Z,12.40
2017-10-15T05:50:05.757Z,12.40
2017-10-15T05:52:34.023Z,12.50
2017-10-15T05:55:02.267Z,12.40
2017-10-15T05:57:30.514Z,12.50
2017-10-15T05:59:59.087Z,12.50
2017-10-15T06:02:27.325Z,12.40
2017-10-15T06:04:56.347Z,12.50
2017-10-15T06:07:24.682Z,12.40
2017-10-15T06:09:52.982Z,12.50
2017-10-15T06:12:21.209Z,12.50
2017-10-15T06:14:49.476Z,12.50
2017-10-15T06:17:17.710Z,12.50
2017-10-15T06:19:45.956Z,12.50
2017-10-15T06:22:14.666Z,12.60
2017-10-15T06:24:43.686Z,12.60
2017-10-15T06:27:11.939Z,12.60
2017-10-15T06:29:41.158Z,12.70
2017-10-15T06:32:09.408Z,12.60
2017-10-15T06:34:38.422Z,12.70
2017-10-15T06:37:06.690Z,12.70
2017-10-15T06:39:35.703Z,12.80
2017-10-15T06:42:03.954Z,12.80
2017-10-15T06:44:32.990Z,12.90
2017-10-15T06:47:01.242Z,12.90
2017-10-15T06:49:29.499Z,12.90
2017-10-15T06:51:58.947Z,13.00
2017-10-15T06:54:27.207Z,13.00
2017-10-15T06:56:55.459Z,13.00
2017-10-15T06:59:23.742Z,13.00
2017-10-15T07:01:52.759Z,13.10
2017-10-15T07:04:21.001Z,13.10
2017-10-15T07:06:50.046Z,13.20
2017-10-15T07:09:18.450Z,13.20
2017-10-15T07:11:46.699Z,13.20
2017-10-15T07:14:15.281Z,13.10
2017-10-15T07:16:43.535Z,13.10
2017-10-15T07:19:11.968Z,13.10
2017-10-15T07:21:40.370Z,13.10
2017-10-15T07:24:09.679Z,13.10
2017-10-15T07:26:38.950Z,13.10
2017-10-15T07:29:07.231Z,13.10
2017-10-15T07:31:35.478Z,13.20
2017-10-15T07:34:03.725Z,13.20
2017-10-15T07:36:32.234Z,13.20
2017-10-15T07:39:00.486Z,13.20
2017-10-15T07:41:28.738Z,13.20
2017-10-15T07:43:57.018Z,13.20
2017-10-15T07:46:25.280Z,13.20
2017-10-15T07:48:53.523Z,13.30
2017-10-15T07:51:21.920Z,13.30
2017-10-15T07:53:50.182Z,13.40
2017-10-15T07:56:18.432Z,13.40
2017-10-15T07:58:47.026Z,13.50
2017-10-15T08:01:15.284Z,13.50
2017-10-15T08:03:43.534Z,13.50
2017-10-15T08:06:11.810Z,13.50
2017-10-15T08:08:40.832Z,13.60
2017-10-15T08:11:09.084Z,13.60
2017-10-15T08:13:37.354Z,13.60
2017-10-15T08:16:05.602Z,13.60
2017-10-15T08:18:33.871Z,13.60
2017-10-15T08:21:03.406Z,13.60
2017-10-15T08:23:31.665Z,13.60
2017-10-15T08:25:59.919Z,13.70
2017-10-15T08:28:28.216Z,13.90
2017-10-15T08:30:56.462Z,14.00
2017-10-15T08:33:24.898Z,14.10
2017-10-15T08:35:53.194Z,14.10
2017-10-15T08:38:21.442Z,14.10
2017-10-15T08:40:49.699Z,14.10
2017-10-15T08:43:18.158Z,14.00
2017-10-15T08:45:46.418Z,14.10
2017-10-15T08:48:14.671Z,14.20
2017-10-15T08:50:42.950Z,14.40
2017-10-15T08:53:11.194Z,14.70
2017-10-15T08:55:39.446Z,15.00
2017-10-15T08:58:07.717Z,15.20
2017-10-15T09:00:35.970Z,15.40
2017-10-15T09:03:04.223Z,15.60
2017-10-15T09:05:32.562Z,15.70
2017-10-15T09:08:00.810Z,15.70
2017-10-15T09:10:29.122Z,15.70
2017-10-15T09:12:57.396Z,15.60
2017-10-15T09:15:25.649Z,15.60
2017-10-15T09:17:53.898Z,15.60
2017-10-15T09:20:22.171Z,15.40
2017-10-15T09:22:50.437Z,15.20
2017-10-15T09:25:19.303Z,15.10
2017-10-15T09:27:47.798Z,14.90
2017-10-15T09:30:16.047Z,14.90
2017-10-15T09:32:44.298Z,14.90
2017-10-15T09:35:12.570Z,14.90
2017-10-15T09:37:40.832Z,15.00
2017-10-15T09:40:09.074Z,15.40
2017-10-15T09:42:37.350Z,16.10
2017-10-15T09:45:05.594Z,16.90
2017-10-15T09:47:33.858Z,17.50
2017-10-15T09:50:02.554Z,18.10
2017-10-15T09:52:30.809Z,18.50
2017-10-15T09:54:59.058Z,18.90
2017-10-15T09:57:28.102Z,19.60
2017-10-15T09:59:56.367Z,19.60
2017-10-15T10:02:24.615Z,19.80
2017-10-15T10:04:52.901Z,20.20
2017-10-15T10:07:21.154Z,20.60
2017-10-15T10:09:50.329Z,21.20
2017-10-15T10:12:18.663Z,21.20
2017-10-15T10:14:46.915Z,21.60
2017-10-15T10:17:15.930Z,21.80
2017-10-15T10:19:44.210Z,21.70
2017-10-15T10:22:12.467Z,21.70
2017-10-15T10:24:41.482Z,21.10
2017-10-15T10:27:10.204Z,21.10
2017-10-15T10:29:38.450Z,21.40
2017-10-15T10:32:06.702Z,21.90
2017-10-15T10:34:35.535Z,22.50
2017-10-15T10:37:03.790Z,23.10
2017-10-15T10:39:32.103Z,23.10
2017-10-15T10:42:00.364Z,22.90
2017-10-15T10:44:28.632Z,23.20
2017-10-15T10:46:56.873Z,23.70
2017-10-15T10:49:25.926Z,25.00
2017-10-15T10:51:54.172Z,25.00
2017-10-15T10:54:22.426Z,25.50
2017-10-15T10:56:50.805Z,25.80
2017-10-15T10:59:19.059Z,26.00
2017-10-15T11:01:47.310Z,26.10
2017-10-15T11:04:15.583Z,26.20
2017-10-15T11:06:43.838Z,26.50
2017-10-15T11:09:12.092Z,26.90
2017-10-15T11:11:40.361Z,27.10
2017-10-15T11:14:08.661Z,27.40
2017-10-15T11:16:36.909Z,27.60
2017-10-15T11:19:05.586Z,27.70
2017-10-15T11:21:37.739Z,28.10
2017-10-15T11:24:06.014Z,28.30
2017-10-15T11:26:34.267Z,28.70
2017-10-15T11:29:02.923Z,28.90
2017-10-15T11:31:31.197Z,29.20
2017-10-15T11:33:59.451Z,29.60
2017-10-15T11:36:28.470Z,30.00
2017-10-15T11:38:56.802Z,30.00
2017-10-15T11:41:25.059Z,30.20
2017-10-15T11:43:53.308Z,30.40
2017-10-15T11:46:21.586Z,30.80
2017-10-15T11:48:49.834Z,31.20
2017-10-15T11:51:18.094Z,31.40
2017-10-15T11:53:46.375Z,31.40
2017-10-15T11:56:14.663Z,31.50
2017-10-15T11:58:42.901Z,31.70
2017-10-15T12:01:11.646Z,31.70
2017-10-15T12:03:39.896Z,31.90
2017-10-15T12:06:08.926Z,32.10
2017-10-15T12:08:37.202Z,32.10
2017-10-15T12:11:05.450Z,32.40
2017-10-15T12:13:34.470Z,33.20
2017-10-15T12:16:02.751Z,33.20
2017-10-15T12:18:31.994Z,33.20
2017-10-15T12:21:00.246Z,33.20
2017-10-15T12:23:28.578Z,33.60
2017-10-15T12:25:57.597Z,34.00
2017-10-15T12:28:25.846Z,34.00
2017-10-15T12:30:55.150Z,34.10
2017-10-15T12:33:24.158Z,34.40
2017-10-15T12:35:52.405Z,34.40
2017-10-15T12:38:20.754Z,34.80
2017-10-15T12:40:48.978Z,35.10
2017-10-15T12:43:17.995Z,35.60
2017-10-15T12:45:46.340Z,35.60
2017-10-15T12:48:15.399Z,34.90
2017-10-15T12:50:43.634Z,34.90
2017-10-15T12:53:12.099Z,34.90
2017-10-15T12:55:41.123Z,35.70
2017-10-15T12:58:09.370Z,35.70
2017-10-15T13:00:37.666Z,35.60
2017-10-15T13:03:05.925Z,35.50
2017-10-15T13:05:34.938Z,35.70
2017-10-15T13:08:03.432Z,35.70
2017-10-15T13:10:31.678Z,35.80
2017-10-15T13:13:00.709Z,36.70
2017-10-15T13:15:28.974Z,36.70
2017-10-15T13:17:57.239Z,37.00
2017-10-15T13:20:25.478Z,36.90
2017-10-15T13:22:53.768Z,36.90
2017-10-15T13:25:22.007Z,37.10
2017-10-15T13:27:50.253Z,37.20
2017-10-15T13:30:18.578Z,37.40
2017-10-15T13:32:47.089Z,37.70
2017-10-15T13:35:16.105Z,38.30
2017-10-15T13:37:44.382Z,38.30
2017-10-15T13:40:12.807Z,38.60
2017-10-15T13:42:41.058Z,38.60
2017-10-15T13:45:10.529Z,38.70
2017-10-15T13:47:39.542Z,39.00
2017-10-15T13:50:07.869Z,39.00
2017-10-15T13:52:36.311Z,39.30
2017-10-15T13:55:04.810Z,39.50
2017-10-15T13:57:33.030Z,39.70
2017-10-15T14:00:02.062Z,39.40
2017-10-15T14:02:30.371Z,39.40
2017-10-15T14:05:01.811Z,39.40
2017-10-15T14:07:30.226Z,38.80
2017-10-15T14:09:59.512Z,38.60
2017-10-15T14:12:27.879Z,38.60
2017-10-15T14:14:56.214Z,38.80
2017-10-15T14:17:24.745Z,39.10
2017-10-15T14:19:53.075Z,39.40
2017-10-15T14:22:21.334Z,39.50
2017-10-15T14:24:49.577Z,39.80
2017-10-15T14:27:17.845Z,39.80
2017-10-15T14:29:46.251Z,39.80
2017-10-15T14:32:15.522Z,39.60
2017-10-15T14:34:44.509Z,39.60
2017-10-15T14:37:13.932Z,39.60
2017-10-15T14:39:42.199Z,39.30
2017-10-15T14:42:10.654Z,39.30
2017-10-15T14:44:38.989Z,39.10
2017-10-15T14:47:08.006Z,38.60
2017-10-15T14:49:36.338Z,38.60
2017-10-15T14:52:04.739Z,38.50
2017-10-15T14:54:34.450Z,38.70
2017-10-15T14:57:02.706Z,38.70
2017-10-15T14:59:31.134Z,38.70
2017-10-15T15:01:59.478Z,38.50
2017-10-15T15:04:27.718Z,38.40
2017-10-15T15:06:55.985Z,38.30
2017-10-15T15:09:24.287Z,38.20
2017-10-15T15:11:53.580Z,38.30
2017-10-15T15:14:22.655Z,36.50
2017-10-15T15:16:50.962Z,36.50
2017-10-15T15:19:19.343Z,35.10
2017-10-15T15:21:48.103Z,34.40
2017-10-15T15:24:16.354Z,34.80
2017-10-15T15:26:44.773Z,35.20
2017-10-15T15:29:13.189Z,35.30
2017-10-15T15:31:42.202Z,34.30
2017-10-15T15:34:10.537Z,34.30
2017-10-15T15:36:39.558Z,33.10
2017-10-15T15:39:09.869Z,31.20
2017-10-15T15:41:38.130Z,31.10
2017-10-15T15:44:07.514Z,30.40
2017-10-15T15:46:35.819Z,29.90
2017-10-15T15:49:04.189Z,29.50
2017-10-15T15:51:32.970Z,29.20
2017-10-15T15:54:01.423Z,28.80
2017-10-15T15:56:30.866Z,28.60
2017-10-15T15:59:00.189Z,28.40
2017-10-15T16:01:30.390Z,27.90
2017-10-15T16:03:58.767Z,27.90
2017-10-15T16:06:27.653Z,27.70
2017-10-15T16:08:57.114Z,27.50
2017-10-15T16:11:27.589Z,27.30
2017-10-15T16:13:56.004Z,27.10
2017-10-15T16:16:26.178Z,26.80
2017-10-15T16:18:54.572Z,26.80
2017-10-15T16:21:23.026Z,26.60
2017-10-15T16:23:51.322Z,26.40
2017-10-15T16:26:19.739Z,26.20
2017-10-15T16:28:50.007Z,25.90
2017-10-15T16:31:18.306Z,25.80
2017-10-15T16:33:46.691Z,25.80
2017-10-15T16:36:15.259Z,25.60
2017-10-15T16:38:43.503Z,25.40
2017-10-15T16:41:12.744Z,25.20
2017-10-15T16:43:41.145Z,25.10
2017-10-15T16:46:10.158Z,24.70
2017-10-15T16:48:38.502Z,24.70
2017-10-15T16:51:08.184Z,24.50
2017-10-15T16:53:40.274Z,24.30
2017-10-15T16:56:16.222Z,24.10
2017-10-15T16:58:44.730Z,23.70
2017-10-15T17:01:12.990Z,23.50
2017-10-15T17:03:41.435Z,23.40
2017-10-15T17:06:09.738Z,23.30
2017-10-15T17:08:39.054Z,23.30
2017-10-15T17:11:07.518Z,23.20
2017-10-15T17:13:35.811Z,23.10
2017-10-15T17:16:04.230Z,23.00
2017-10-15T17:18:32.592Z,22.90
2017-10-15T17:21:01.603Z,22.70
2017-10-15T17:23:29.946Z,22.70
2017-10-15T17:26:01.587Z,22.70
2017-10-15T17:28:29.830Z,22.60
2017-10-15T17:31:00.306Z,22.40
2017-10-15T17:33:29.056Z,22.30
2017-10-15T17:35:57.577Z,22.10
2017-10-15T17:38:27.618Z,22.10
2017-10-15T17:40:56.765Z,22.00
2017-10-15T17:43:24.990Z,22.00
2017-10-15T17:45:54.031Z,21.80
2017-10-15T17:48:23.633Z,21.80
2017-10-15T17:50:51.943Z,21.80
2017-10-15T17:53:20.322Z,21.80
2017-10-15T17:55:48.923Z,21.60
2017-10-15T17:58:17.394Z,21.50
2017-10-15T18:00:45.815Z,21.40
2017-10-15T18:03:14.166Z,21.30
2017-10-15T18:05:43.206Z,21.10
2017-10-15T18:08:11.514Z,21.10
2017-10-15T18:10:39.915Z,21.10
2017-10-15T18:13:08.939Z,21.00
2017-10-15T18:15:37.272Z,21.00
2017-10-15T18:18:06.078Z,20.90
2017-10-15T18:20:34.335Z,20.80
2017-10-15T18:23:02.598Z,20.60
2017-10-15T18:25:30.873Z,20.50
2017-10-15T18:27:59.174Z,20.50
2017-10-15T18:30:27.550Z,20.40
2017-10-15T18:32:55.826Z,20.30
2017-10-15T18:35:24.319Z,20.20
2017-10-15T18:37:53.355Z,20.20
2017-10-15T18:40:21.935Z,20.20
2017-10-15T18:42:50.678Z,20.10
2017-10-15T18:45:19.053Z,20.10
2017-10-15T18:47:47.467Z,20.00
2017-10-15T18:50:15.832Z,19.90
2017-10-15T18:52:44.191Z,19.90
2017-10-15T18:55:12.597Z,19.90
2017-10-15T18:57:41.612Z,19.60
2017-10-15T19:00:10.862Z,19.60
2017-10-15T19:02:39.645Z,19.60
2017-10-15T19:05:07.922Z,19.50
2017-10-15T19:07:36.185Z,19.50
2017-10-15T19:10:04.461Z,19.40
2017-10-15T19:12:32.720Z,19.30
2017-10-15T19:15:01.133Z,19.30
2017-10-15T19:17:29.398Z,19.20
2017-10-15T19:19:57.645Z,19.10
2017-10-15T19:22:25.895Z,19.00
2017-10-15T19:24:54.411Z,18.90
2017-10-15T19:27:22.654Z,18.90
2017-10-15T19:29:50.901Z,18.80
2017-10-15T19:32:19.166Z,18.70
2017-10-15T19:34:47.433Z,18.60
2017-10-15T19:37:15.669Z,18.60
2017-10-15T19:39:44.367Z,18.60
2017-10-15T19:42:12.615Z,18.50
2017-10-15T19:44:40.951Z,18.40
2017-10-15T19:47:09.406Z,18.40
2017-10-15T19:49:37.659Z,18.30
2017-10-15T19:52:05.897Z,18.30
2017-10-15T19:54:34.166Z,18.30
2017-10-15T19:57:02.417Z,18.20
2017-10-15T19:59:30.669Z,18.10
2017-10-15T20:01:59.009Z,18.10
2017-10-15T20:04:28.746Z,17.90
2017-10-15T20:06:57.758Z,17.90
2017-10-15T20:09:26.297Z,17.90
2017-10-15T20:11:54.549Z,17.90
2017-10-15T20:14:22.792Z,17.80
2017-10-15T20:16:51.102Z,17.80
2017-10-15T20:19:19.343Z,17.70
2017-10-15T20:21:47.594Z,17.70
2017-10-15T20:24:15.872Z,17.70
2017-10-15T20:26:44.887Z,17.60
2017-10-15T20:29:13.138Z,17.50
2017-10-15T20:31:42.334Z,17.40
2017-10-15T20:34:11.347Z,17.40
2017-10-15T20:36:39.583Z,17.30
2017-10-15T20:39:08.794Z,17.30
2017-10-15T20:41:37.501Z,17.30
2017-10-15T20:44:06.536Z,17.20
2017-10-15T20:46:34.809Z,17.20
2017-10-15T20:49:03.046Z,17.20
2017-10-15T20:51:31.298Z,17.20
2017-10-15T20:54:00.056Z,17.10
2017-10-15T20:56:28.306Z,17.10
2017-10-15T20:58:56.555Z,17.00
2017-10-15T21:01:27.907Z,17.00
2017-10-15T21:03:56.915Z,16.90
2017-10-15T21:06:25.926Z,16.90
2017-10-15T21:08:54.205Z,16.80
2017-10-15T21:11:22.446Z,16.80
2017-10-15T21:13:50.698Z,16.70
2017-10-15T21:16:19.458Z,16.70
2017-10-15T21:18:47.710Z,16.70
2017-10-15T21:21:15.958Z,16.70
2017-10-15T21:23:44.997Z,16.60
2017-10-15T21:26:13.258Z,16.60
2017-10-15T21:28:41.506Z,16.50
2017-10-15T21:31:10.548Z,16.50
2017-10-15T21:33:38.797Z,16.40
2017-10-15T21:36:07.046Z,16.40
2017-10-15T21:38:35.404Z,16.40
2017-10-15T21:41:03.794Z,16.30
2017-10-15T21:43:32.206Z,16.20
2017-10-15T21:46:01.239Z,16.10
2017-10-15T21:48:29.490Z,16.10
2017-10-15T21:50:57.734Z,16.10
2017-10-15T21:53:25.999Z,16.00
2017-10-15T21:55:54.245Z,16.00
2017-10-15T21:58:22.482Z,16.00
2017-10-15T22:00:51.658Z,16.00
2017-10-15T22:03:19.909Z,16.00
2017-10-15T22:05:48.150Z,16.00
2017-10-15T22:08:16.418Z,15.90
2017-10-15T22:10:44.673Z,15.90
2017-10-15T22:13:13.686Z,15.70
2017-10-15T22:15:42.716Z,15.70
2017-10-15T22:18:16.636Z,15.70
2017-10-15T22:20:50.683Z,15.60
2017-10-15T22:23:19.693Z,15.60
2017-10-15T22:25:47.947Z,15.50
2017-10-15T22:28:16.217Z,15.50
2017-10-15T22:30:44.467Z,15.50
2017-10-15T22:33:12.715Z,15.40
2017-10-15T22:35:40.990Z,15.50
2017-10-15T22:38:09.242Z,15.40
2017-10-15T22:40:37.490Z,15.40
2017-10-15T22:43:05.877Z,15.40
2017-10-15T22:45:34.282Z,15.30
2017-10-15T22:48:03.299Z,15.30
2017-10-15T22:50:32.337Z,15.20
2017-10-15T22:53:00.589Z,15.20
2017-10-15T22:55:28.834Z,15.30
2017-10-15T22:57:57.103Z,15.30
2017-10-15T23:00:26.116Z,15.20
2017-10-15T23:02:54.366Z,15.20
2017-10-15T23:05:22.755Z,15.20
2017-10-15T23:07:51.002Z,15.10
2017-10-15T23:10:19.254Z,15.10
2017-10-15T23:12:47.519Z,15.10
2017-10-15T23:15:15.775Z,15.10
2017-10-15T23:17:44.017Z,15.00
2017-10-15T23:20:13.046Z,14.90
2017-10-15T23:22:41.298Z,14.90
2017-10-15T23:25:10.314Z,14.90
2017-10-15T23:27:38.647Z,14.80
2017-10-15T23:30:06.897Z,14.80
2017-10-15T23:32:35.142Z,14.70
2017-10-15T23:35:03.419Z,14.70
2017-10-15T23:37:31.662Z,14.60
2017-10-15T23:40:00.675Z,14.50
2017-10-15T23:42:28.942Z,14.50
2017-10-15T23:44:57.955Z,14.50
2017-10-15T23:47:26.370Z,14.50
2017-10-15T23:49:54.709Z,14.50
2017-10-15T23:52:22.955Z,14.50
2017-10-15T23:54:51.201Z,14.40
2017-10-15T23:57:19.465Z,14.40
2017-10-15T23:59:47.719Z,14.40
